sensor_id;sensor_type;location;lat;lon;timestamp;P1;durP1;ratioP1;P2;durP2;ratioP2
12228;SDS011;6177;52.402;9.800;2024-03-08T00:02:13;17.30;;;15.60;;
12228;SDS011;6177;52.402;9.800;2024-03-08T00:04:39;19.90;;;17.83;;
12228;SDS011;6177;52.402;9.800;2024-03-08T00:07:05;19.20;;;17.20;;
12228;SDS011;6177;52.402;9.800;2024-03-08T00:09:31;18.80;;;16.63;;
12228;SDS011;6177;52.402;9.800;2024-03-08T00:11:57;18.60;;;16.70;;
12228;SDS011;6177;52.402;9.800;2024-03-08T00:14:23;18.73;;;16.80;;
12228;SDS011;6177;52.402;9.800;2024-03-08T00:16:48;19.03;;;17.13;;
12228;SDS011;6177;52.402;9.800;2024-03-08T00:19:14;18.93;;;16.97;;
12228;SDS011;6177;52.402;9.800;2024-03-08T00:21:40;18.23;;;16.37;;
12228;SDS011;6177;52.402;9.800;2024-03-08T00:24:06;19.17;;;17.17;;
12228;SDS011;6177;52.402;9.800;2024-03-08T00:26:32;18.10;;;16.27;;
12228;SDS011;6177;52.402;9.800;2024-03-08T00:28:58;20.00;;;16.70;;
12228;SDS011;6177;52.402;9.800;2024-03-08T00:31:23;18.13;;;16.23;;
12228;SDS011;6177;52.402;9.800;2024-03-08T00:33:50;20.17;;;18.07;;
12228;SDS011;6177;52.402;9.800;2024-03-08T00:36:16;18.50;;;16.67;;
12228;SDS011;6177;52.402;9.800;2024-03-08T00:38:42;19.77;;;16.83;;
12228;SDS011;6177;52.402;9.800;2024-03-08T00:41:18;19.27;;;17.23;;
12228;SDS011;6177;52.402;9.800;2024-03-08T00:43:44;19.03;;;17.03;;
12228;SDS011;6177;52.402;9.800;2024-03-08T00:46:09;18.67;;;16.77;;
12228;SDS011;6177;52.402;9.800;2024-03-08T00:48:35;18.83;;;16.17;;
12228;SDS011;6177;52.402;9.800;2024-03-08T00:51:01;21.17;;;16.20;;
12228;SDS011;6177;52.402;9.800;2024-03-08T00:53:27;18.87;;;16.43;;
12228;SDS011;6177;52.402;9.800;2024-03-08T00:55:52;19.00;;;17.00;;
12228;SDS011;6177;52.402;9.800;2024-03-08T00:58:20;19.37;;;17.47;;
12228;SDS011;6177;52.402;9.800;2024-03-08T01:00:46;20.77;;;16.80;;
12228;SDS011;6177;52.402;9.800;2024-03-08T01:03:11;20.57;;;18.37;;
12228;SDS011;6177;52.402;9.800;2024-03-08T01:05:37;21.00;;;18.70;;
12228;SDS011;6177;52.402;9.800;2024-03-08T01:08:03;20.33;;;17.87;;
12228;SDS011;6177;52.402;9.800;2024-03-08T01:10:30;19.53;;;17.53;;
12228;SDS011;6177;52.402;9.800;2024-03-08T01:12:55;21.40;;;17.40;;
12228;SDS011;6177;52.402;9.800;2024-03-08T01:15:22;20.97;;;18.37;;
12228;SDS011;6177;52.402;9.800;2024-03-08T01:17:48;21.40;;;17.70;;
12228;SDS011;6177;52.402;9.800;2024-03-08T01:20:14;20.03;;;17.67;;
12228;SDS011;6177;52.402;9.800;2024-03-08T01:22:40;19.60;;;17.30;;
12228;SDS011;6177;52.402;9.800;2024-03-08T01:25:05;19.10;;;17.20;;
12228;SDS011;6177;52.402;9.800;2024-03-08T01:27:31;19.80;;;17.77;;
12228;SDS011;6177;52.402;9.800;2024-03-08T01:29:57;19.63;;;17.33;;
12228;SDS011;6177;52.402;9.800;2024-03-08T01:32:24;20.40;;;18.30;;
12228;SDS011;6177;52.402;9.800;2024-03-08T01:34:50;20.20;;;17.77;;
12228;SDS011;6177;52.402;9.800;2024-03-08T01:37:16;20.47;;;17.83;;
12228;SDS011;6177;52.402;9.800;2024-03-08T01:39:41;20.10;;;18.00;;
12228;SDS011;6177;52.402;9.800;2024-03-08T01:42:07;19.10;;;17.13;;
12228;SDS011;6177;52.402;9.800;2024-03-08T01:44:33;19.93;;;17.47;;
12228;SDS011;6177;52.402;9.800;2024-03-08T01:46:59;20.47;;;17.33;;
12228;SDS011;6177;52.402;9.800;2024-03-08T01:49:25;22.47;;;17.43;;
12228;SDS011;6177;52.402;9.800;2024-03-08T01:51:51;19.20;;;17.17;;
12228;SDS011;6177;52.402;9.800;2024-03-08T01:54:18;21.27;;;19.00;;
12228;SDS011;6177;52.402;9.800;2024-03-08T01:56:45;20.90;;;17.70;;
12228;SDS011;6177;52.402;9.800;2024-03-08T01:59:11;20.27;;;18.17;;
12228;SDS011;6177;52.402;9.800;2024-03-08T02:01:38;19.47;;;17.33;;
12228;SDS011;6177;52.402;9.800;2024-03-08T02:04:03;20.60;;;18.13;;
12228;SDS011;6177;52.402;9.800;2024-03-08T02:06:31;19.87;;;17.87;;
12228;SDS011;6177;52.402;9.800;2024-03-08T02:08:56;22.90;;;17.97;;
12228;SDS011;6177;52.402;9.800;2024-03-08T02:11:22;20.07;;;17.33;;
12228;SDS011;6177;52.402;9.800;2024-03-08T02:13:48;19.07;;;17.17;;
12228;SDS011;6177;52.402;9.800;2024-03-08T02:16:19;22.60;;;18.20;;
12228;SDS011;6177;52.402;9.800;2024-03-08T02:18:45;19.57;;;17.57;;
12228;SDS011;6177;52.402;9.800;2024-03-08T02:21:12;25.30;;;18.03;;
12228;SDS011;6177;52.402;9.800;2024-03-08T02:23:37;19.20;;;17.13;;
12228;SDS011;6177;52.402;9.800;2024-03-08T02:26:03;19.80;;;17.70;;
12228;SDS011;6177;52.402;9.800;2024-03-08T02:28:30;21.20;;;18.37;;
12228;SDS011;6177;52.402;9.800;2024-03-08T02:30:55;21.23;;;18.83;;
12228;SDS011;6177;52.402;9.800;2024-03-08T02:33:21;20.63;;;18.53;;
12228;SDS011;6177;52.402;9.800;2024-03-08T02:35:47;25.93;;;19.60;;
12228;SDS011;6177;52.402;9.800;2024-03-08T02:38:14;20.73;;;18.50;;
12228;SDS011;6177;52.402;9.800;2024-03-08T02:40:50;20.70;;;17.57;;
12228;SDS011;6177;52.402;9.800;2024-03-08T02:43:17;21.13;;;17.37;;
12228;SDS011;6177;52.402;9.800;2024-03-08T02:45:44;20.97;;;18.27;;
12228;SDS011;6177;52.402;9.800;2024-03-08T02:48:10;20.77;;;18.57;;
12228;SDS011;6177;52.402;9.800;2024-03-08T02:50:36;21.73;;;18.07;;
12228;SDS011;6177;52.402;9.800;2024-03-08T02:53:03;20.47;;;18.07;;
12228;SDS011;6177;52.402;9.800;2024-03-08T02:55:29;21.47;;;18.87;;
12228;SDS011;6177;52.402;9.800;2024-03-08T02:57:55;20.00;;;17.83;;
12228;SDS011;6177;52.402;9.800;2024-03-08T03:00:21;20.63;;;18.43;;
12228;SDS011;6177;52.402;9.800;2024-03-08T03:02:48;21.63;;;18.63;;
12228;SDS011;6177;52.402;9.800;2024-03-08T03:05:19;22.47;;;17.83;;
12228;SDS011;6177;52.402;9.800;2024-03-08T03:07:45;22.40;;;18.43;;
12228;SDS011;6177;52.402;9.800;2024-03-08T03:10:11;23.10;;;18.97;;
12228;SDS011;6177;52.402;9.800;2024-03-08T03:12:43;21.33;;;18.30;;
12228;SDS011;6177;52.402;9.800;2024-03-08T03:15:11;22.13;;;18.77;;
12228;SDS011;6177;52.402;9.800;2024-03-08T03:17:37;20.33;;;18.17;;
12228;SDS011;6177;52.402;9.800;2024-03-08T03:20:04;22.83;;;19.30;;
12228;SDS011;6177;52.402;9.800;2024-03-08T03:22:36;24.37;;;19.23;;
12228;SDS011;6177;52.402;9.800;2024-03-08T03:25:02;21.47;;;18.33;;
12228;SDS011;6177;52.402;9.800;2024-03-08T03:27:29;22.47;;;18.40;;
12228;SDS011;6177;52.402;9.800;2024-03-08T03:29:56;20.57;;;17.83;;
12228;SDS011;6177;52.402;9.800;2024-03-08T03:32:23;23.33;;;19.30;;
12228;SDS011;6177;52.402;9.800;2024-03-08T03:34:48;21.10;;;18.70;;
12228;SDS011;6177;52.402;9.800;2024-03-08T03:37:18;22.33;;;18.63;;
12228;SDS011;6177;52.402;9.800;2024-03-08T03:39:45;21.03;;;18.53;;
12228;SDS011;6177;52.402;9.800;2024-03-08T03:42:18;20.97;;;18.50;;
12228;SDS011;6177;52.402;9.800;2024-03-08T03:44:45;22.97;;;19.80;;
12228;SDS011;6177;52.402;9.800;2024-03-08T03:47:17;23.43;;;19.00;;
12228;SDS011;6177;52.402;9.800;2024-03-08T03:49:42;24.03;;;18.77;;
12228;SDS011;6177;52.402;9.800;2024-03-08T03:52:08;22.03;;;18.60;;
12228;SDS011;6177;52.402;9.800;2024-03-08T03:54:34;24.20;;;18.70;;
12228;SDS011;6177;52.402;9.800;2024-03-08T03:57:00;23.90;;;19.33;;
12228;SDS011;6177;52.402;9.800;2024-03-08T03:59:28;26.63;;;19.87;;
12228;SDS011;6177;52.402;9.800;2024-03-08T04:01:53;23.00;;;18.33;;
12228;SDS011;6177;52.402;9.800;2024-03-08T04:04:20;25.03;;;20.27;;
12228;SDS011;6177;52.402;9.800;2024-03-08T04:06:50;22.23;;;19.10;;
12228;SDS011;6177;52.402;9.800;2024-03-08T04:09:16;22.97;;;20.13;;
12228;SDS011;6177;52.402;9.800;2024-03-08T04:11:44;23.73;;;19.83;;
12228;SDS011;6177;52.402;9.800;2024-03-08T04:14:10;24.23;;;19.63;;
12228;SDS011;6177;52.402;9.800;2024-03-08T04:16:35;21.97;;;18.70;;
12228;SDS011;6177;52.402;9.800;2024-03-08T04:19:01;23.40;;;20.00;;
12228;SDS011;6177;52.402;9.800;2024-03-08T04:21:32;23.80;;;20.63;;
12228;SDS011;6177;52.402;9.800;2024-03-08T04:23:58;23.40;;;20.13;;
12228;SDS011;6177;52.402;9.800;2024-03-08T04:26:24;22.43;;;20.03;;
12228;SDS011;6177;52.402;9.800;2024-03-08T04:28:51;23.53;;;19.57;;
12228;SDS011;6177;52.402;9.800;2024-03-08T04:31:17;25.07;;;21.30;;
12228;SDS011;6177;52.402;9.800;2024-03-08T04:33:42;25.13;;;20.87;;
12228;SDS011;6177;52.402;9.800;2024-03-08T04:36:09;24.50;;;20.23;;
12228;SDS011;6177;52.402;9.800;2024-03-08T04:38:39;24.10;;;21.27;;
12228;SDS011;6177;52.402;9.800;2024-03-08T04:41:07;23.20;;;20.90;;
12228;SDS011;6177;52.402;9.800;2024-03-08T04:43:34;24.70;;;22.00;;
12228;SDS011;6177;52.402;9.800;2024-03-08T04:46:01;24.37;;;21.73;;
12228;SDS011;6177;52.402;9.800;2024-03-08T04:48:30;26.97;;;21.87;;
12228;SDS011;6177;52.402;9.800;2024-03-08T04:50:56;25.33;;;22.10;;
12228;SDS011;6177;52.402;9.800;2024-03-08T04:53:22;25.93;;;21.90;;
12228;SDS011;6177;52.402;9.800;2024-03-08T04:55:48;27.50;;;22.70;;
12228;SDS011;6177;52.402;9.800;2024-03-08T04:58:14;23.83;;;21.33;;
12228;SDS011;6177;52.402;9.800;2024-03-08T05:00:40;26.33;;;22.23;;
12228;SDS011;6177;52.402;9.800;2024-03-08T05:03:06;24.17;;;21.47;;
12228;SDS011;6177;52.402;9.800;2024-03-08T05:05:31;27.93;;;21.57;;
12228;SDS011;6177;52.402;9.800;2024-03-08T05:07:58;26.63;;;22.53;;
12228;SDS011;6177;52.402;9.800;2024-03-08T05:10:23;24.20;;;21.20;;
12228;SDS011;6177;52.402;9.800;2024-03-08T05:12:49;25.60;;;22.20;;
12228;SDS011;6177;52.402;9.800;2024-03-08T05:15:15;25.10;;;22.20;;
12228;SDS011;6177;52.402;9.800;2024-03-08T05:17:41;26.73;;;22.27;;
12228;SDS011;6177;52.402;9.800;2024-03-08T05:20:07;26.17;;;21.77;;
12228;SDS011;6177;52.402;9.800;2024-03-08T05:22:37;24.77;;;22.00;;
12228;SDS011;6177;52.402;9.800;2024-03-08T05:25:03;25.83;;;20.80;;
12228;SDS011;6177;52.402;9.800;2024-03-08T05:27:28;25.90;;;21.37;;
12228;SDS011;6177;52.402;9.800;2024-03-08T05:29:54;25.00;;;21.47;;
12228;SDS011;6177;52.402;9.800;2024-03-08T05:32:19;25.17;;;22.47;;
12228;SDS011;6177;52.402;9.800;2024-03-08T05:34:45;25.90;;;21.63;;
12228;SDS011;6177;52.402;9.800;2024-03-08T05:37:11;24.40;;;21.13;;
12228;SDS011;6177;52.402;9.800;2024-03-08T05:39:36;25.93;;;22.60;;
12228;SDS011;6177;52.402;9.800;2024-03-08T05:42:02;28.23;;;22.73;;
12228;SDS011;6177;52.402;9.800;2024-03-08T05:44:27;26.10;;;21.90;;
12228;SDS011;6177;52.402;9.800;2024-03-08T05:46:54;29.33;;;23.23;;
12228;SDS011;6177;52.402;9.800;2024-03-08T05:49:21;23.90;;;21.27;;
12228;SDS011;6177;52.402;9.800;2024-03-08T05:51:46;26.83;;;22.33;;
12228;SDS011;6177;52.402;9.800;2024-03-08T05:54:12;27.67;;;23.03;;
12228;SDS011;6177;52.402;9.800;2024-03-08T05:56:38;26.17;;;22.13;;
12228;SDS011;6177;52.402;9.800;2024-03-08T05:59:07;28.47;;;23.43;;
12228;SDS011;6177;52.402;9.800;2024-03-08T06:01:32;28.20;;;23.63;;
12228;SDS011;6177;52.402;9.800;2024-03-08T06:04:01;26.60;;;22.10;;
12228;SDS011;6177;52.402;9.800;2024-03-08T06:06:27;28.33;;;23.23;;
12228;SDS011;6177;52.402;9.800;2024-03-08T06:08:53;27.47;;;24.00;;
12228;SDS011;6177;52.402;9.800;2024-03-08T06:11:21;27.37;;;23.43;;
12228;SDS011;6177;52.402;9.800;2024-03-08T06:13:47;26.17;;;21.87;;
12228;SDS011;6177;52.402;9.800;2024-03-08T06:16:13;26.57;;;22.40;;
12228;SDS011;6177;52.402;9.800;2024-03-08T06:18:39;24.97;;;22.40;;
12228;SDS011;6177;52.402;9.800;2024-03-08T06:21:05;27.23;;;23.93;;
12228;SDS011;6177;52.402;9.800;2024-03-08T06:23:33;27.77;;;23.73;;
12228;SDS011;6177;52.402;9.800;2024-03-08T06:26:12;25.43;;;22.67;;
12228;SDS011;6177;52.402;9.800;2024-03-08T06:28:38;29.20;;;23.53;;
12228;SDS011;6177;52.402;9.800;2024-03-08T06:31:03;25.17;;;22.50;;
12228;SDS011;6177;52.402;9.800;2024-03-08T06:33:30;25.23;;;21.27;;
12228;SDS011;6177;52.402;9.800;2024-03-08T06:35:57;26.57;;;22.70;;
12228;SDS011;6177;52.402;9.800;2024-03-08T06:38:24;25.67;;;23.07;;
12228;SDS011;6177;52.402;9.800;2024-03-08T06:40:50;24.77;;;22.17;;
12228;SDS011;6177;52.402;9.800;2024-03-08T06:43:16;25.40;;;22.57;;
12228;SDS011;6177;52.402;9.800;2024-03-08T06:45:43;25.83;;;23.23;;
12228;SDS011;6177;52.402;9.800;2024-03-08T06:48:16;26.33;;;22.87;;
12228;SDS011;6177;52.402;9.800;2024-03-08T06:50:46;24.73;;;22.27;;
12228;SDS011;6177;52.402;9.800;2024-03-08T06:53:12;25.03;;;22.37;;
12228;SDS011;6177;52.402;9.800;2024-03-08T06:55:39;25.60;;;22.90;;
12228;SDS011;6177;52.402;9.800;2024-03-08T06:58:05;26.87;;;23.30;;
12228;SDS011;6177;52.402;9.800;2024-03-08T07:00:32;26.80;;;23.23;;
12228;SDS011;6177;52.402;9.800;2024-03-08T07:02:58;25.27;;;22.63;;
12228;SDS011;6177;52.402;9.800;2024-03-08T07:05:29;26.57;;;23.77;;
12228;SDS011;6177;52.402;9.800;2024-03-08T07:07:55;26.40;;;23.07;;
12228;SDS011;6177;52.402;9.800;2024-03-08T07:10:21;25.43;;;22.73;;
12228;SDS011;6177;52.402;9.800;2024-03-08T07:12:52;25.37;;;22.60;;
12228;SDS011;6177;52.402;9.800;2024-03-08T07:15:18;25.77;;;22.87;;
12228;SDS011;6177;52.402;9.800;2024-03-08T07:17:48;25.67;;;22.97;;
12228;SDS011;6177;52.402;9.800;2024-03-08T07:20:14;24.70;;;22.13;;
12228;SDS011;6177;52.402;9.800;2024-03-08T07:22:45;24.30;;;21.73;;
12228;SDS011;6177;52.402;9.800;2024-03-08T07:25:18;24.00;;;21.50;;
12228;SDS011;6177;52.402;9.800;2024-03-08T07:27:47;25.77;;;22.30;;
12228;SDS011;6177;52.402;9.800;2024-03-08T07:30:25;24.13;;;21.73;;
12228;SDS011;6177;52.402;9.800;2024-03-08T07:33:10;23.97;;;21.47;;
12228;SDS011;6177;52.402;9.800;2024-03-08T07:35:40;24.23;;;21.77;;
12228;SDS011;6177;52.402;9.800;2024-03-08T07:38:06;23.90;;;21.13;;
12228;SDS011;6177;52.402;9.800;2024-03-08T07:40:39;24.83;;;22.17;;
12228;SDS011;6177;52.402;9.800;2024-03-08T07:43:06;25.67;;;22.07;;
12228;SDS011;6177;52.402;9.800;2024-03-08T07:45:32;24.00;;;21.57;;
12228;SDS011;6177;52.402;9.800;2024-03-08T07:47:58;23.63;;;20.33;;
12228;SDS011;6177;52.402;9.800;2024-03-08T07:50:24;24.30;;;21.77;;
12228;SDS011;6177;52.402;9.800;2024-03-08T07:52:50;25.63;;;21.20;;
12228;SDS011;6177;52.402;9.800;2024-03-08T07:55:16;24.17;;;21.67;;
12228;SDS011;6177;52.402;9.800;2024-03-08T07:57:41;23.80;;;21.40;;
12228;SDS011;6177;52.402;9.800;2024-03-08T08:00:08;25.00;;;22.30;;
12228;SDS011;6177;52.402;9.800;2024-03-08T08:02:36;23.63;;;21.23;;
12228;SDS011;6177;52.402;9.800;2024-03-08T08:05:02;25.20;;;22.27;;
12228;SDS011;6177;52.402;9.800;2024-03-08T08:07:28;24.23;;;21.80;;
12228;SDS011;6177;52.402;9.800;2024-03-08T08:09:54;23.17;;;20.87;;
12228;SDS011;6177;52.402;9.800;2024-03-08T08:12:19;24.37;;;21.97;;
12228;SDS011;6177;52.402;9.800;2024-03-08T08:14:46;24.43;;;21.87;;
12228;SDS011;6177;52.402;9.800;2024-03-08T08:17:11;24.53;;;22.03;;
12228;SDS011;6177;52.402;9.800;2024-03-08T08:19:37;23.73;;;21.37;;
12228;SDS011;6177;52.402;9.800;2024-03-08T08:22:07;24.13;;;21.73;;
12228;SDS011;6177;52.402;9.800;2024-03-08T08:24:34;24.87;;;22.13;;
12228;SDS011;6177;52.402;9.800;2024-03-08T08:27:02;24.80;;;22.17;;
12228;SDS011;6177;52.402;9.800;2024-03-08T08:29:28;23.60;;;21.13;;
12228;SDS011;6177;52.402;9.800;2024-03-08T08:31:53;24.43;;;21.97;;
12228;SDS011;6177;52.402;9.800;2024-03-08T08:34:19;24.67;;;21.87;;
12228;SDS011;6177;52.402;9.800;2024-03-08T08:36:47;25.07;;;22.57;;
12228;SDS011;6177;52.402;9.800;2024-03-08T08:39:12;24.90;;;22.40;;
12228;SDS011;6177;52.402;9.800;2024-03-08T08:41:39;25.67;;;23.07;;
12228;SDS011;6177;52.402;9.800;2024-03-08T08:44:07;25.07;;;22.57;;
12228;SDS011;6177;52.402;9.800;2024-03-08T08:46:36;24.03;;;21.53;;
12228;SDS011;6177;52.402;9.800;2024-03-08T08:49:03;25.50;;;22.93;;
12228;SDS011;6177;52.402;9.800;2024-03-08T08:51:29;25.57;;;22.80;;
12228;SDS011;6177;52.402;9.800;2024-03-08T08:53:55;23.97;;;21.63;;
12228;SDS011;6177;52.402;9.800;2024-03-08T08:56:21;23.87;;;21.20;;
12228;SDS011;6177;52.402;9.800;2024-03-08T08:58:47;25.37;;;22.73;;
12228;SDS011;6177;52.402;9.800;2024-03-08T09:01:14;23.53;;;21.20;;
12228;SDS011;6177;52.402;9.800;2024-03-08T09:03:40;25.98;;;23.58;;
12228;SDS011;6177;52.402;9.800;2024-03-08T09:06:07;24.03;;;21.83;;
12228;SDS011;6177;52.402;9.800;2024-03-08T09:08:36;25.23;;;22.67;;
12228;SDS011;6177;52.402;9.800;2024-03-08T09:11:02;24.87;;;22.17;;
12228;SDS011;6177;52.402;9.800;2024-03-08T09:13:27;24.23;;;21.83;;
12228;SDS011;6177;52.402;9.800;2024-03-08T09:15:53;24.47;;;22.20;;
12228;SDS011;6177;52.402;9.800;2024-03-08T09:18:18;23.23;;;21.10;;
12228;SDS011;6177;52.402;9.800;2024-03-08T09:20:44;24.30;;;21.80;;
12228;SDS011;6177;52.402;9.800;2024-03-08T09:23:10;23.50;;;21.27;;
12228;SDS011;6177;52.402;9.800;2024-03-08T09:25:35;23.77;;;21.47;;
12228;SDS011;6177;52.402;9.800;2024-03-08T09:28:01;24.67;;;22.27;;
12228;SDS011;6177;52.402;9.800;2024-03-08T09:30:26;23.97;;;21.57;;
12228;SDS011;6177;52.402;9.800;2024-03-08T09:32:52;24.27;;;21.97;;
12228;SDS011;6177;52.402;9.800;2024-03-08T09:35:18;22.30;;;20.20;;
12228;SDS011;6177;52.402;9.800;2024-03-08T09:37:44;23.33;;;21.03;;
12228;SDS011;6177;52.402;9.800;2024-03-08T09:40:13;23.83;;;21.53;;
12228;SDS011;6177;52.402;9.800;2024-03-08T09:42:43;23.17;;;20.97;;
12228;SDS011;6177;52.402;9.800;2024-03-08T09:45:11;23.43;;;21.10;;
12228;SDS011;6177;52.402;9.800;2024-03-08T09:47:46;24.00;;;21.40;;
12228;SDS011;6177;52.402;9.800;2024-03-08T09:50:14;22.57;;;20.37;;
12228;SDS011;6177;52.402;9.800;2024-03-08T09:52:40;22.60;;;20.30;;
12228;SDS011;6177;52.402;9.800;2024-03-08T09:55:06;21.33;;;19.33;;
12228;SDS011;6177;52.402;9.800;2024-03-08T09:57:36;22.70;;;20.50;;
12228;SDS011;6177;52.402;9.800;2024-03-08T10:00:02;22.30;;;20.10;;
12228;SDS011;6177;52.402;9.800;2024-03-08T10:02:45;23.27;;;20.87;;
12228;SDS011;6177;52.402;9.800;2024-03-08T10:05:12;22.60;;;20.50;;
12228;SDS011;6177;52.402;9.800;2024-03-08T10:07:37;22.13;;;19.83;;
12228;SDS011;6177;52.402;9.800;2024-03-08T10:10:03;21.83;;;19.83;;
12228;SDS011;6177;52.402;9.800;2024-03-08T10:12:29;21.93;;;19.83;;
12228;SDS011;6177;52.402;9.800;2024-03-08T10:14:58;21.33;;;19.33;;
12228;SDS011;6177;52.402;9.800;2024-03-08T10:17:24;22.30;;;20.10;;
12228;SDS011;6177;52.402;9.800;2024-03-08T10:19:50;22.77;;;20.57;;
12228;SDS011;6177;52.402;9.800;2024-03-08T10:22:19;24.43;;;22.13;;
12228;SDS011;6177;52.402;9.800;2024-03-08T10:24:45;22.50;;;20.13;;
12228;SDS011;6177;52.402;9.800;2024-03-08T10:27:11;21.43;;;19.43;;
12228;SDS011;6177;52.402;9.800;2024-03-08T10:29:37;20.57;;;18.60;;
12228;SDS011;6177;52.402;9.800;2024-03-08T10:32:06;22.37;;;20.30;;
12228;SDS011;6177;52.402;9.800;2024-03-08T10:34:33;22.30;;;20.10;;
12228;SDS011;6177;52.402;9.800;2024-03-08T10:37:03;22.40;;;20.30;;
12228;SDS011;6177;52.402;9.800;2024-03-08T10:39:30;21.93;;;19.73;;
12228;SDS011;6177;52.402;9.800;2024-03-08T10:42:02;23.07;;;20.67;;
12228;SDS011;6177;52.402;9.800;2024-03-08T10:52:29;22.07;;;19.87;;
12228;SDS011;6177;52.402;9.800;2024-03-08T10:54:54;22.20;;;19.77;;
12228;SDS011;6177;52.402;9.800;2024-03-08T10:57:21;21.20;;;19.20;;
12228;SDS011;6177;52.402;9.800;2024-03-08T10:59:49;21.13;;;19.27;;
12228;SDS011;6177;52.402;9.800;2024-03-08T11:02:15;22.03;;;19.87;;
12228;SDS011;6177;52.402;9.800;2024-03-08T11:04:48;22.17;;;20.13;;
12228;SDS011;6177;52.402;9.800;2024-03-08T11:07:15;22.13;;;20.13;;
12228;SDS011;6177;52.402;9.800;2024-03-08T11:09:45;22.10;;;20.00;;
12228;SDS011;6177;52.402;9.800;2024-03-08T11:12:19;22.03;;;19.93;;
12228;SDS011;6177;52.402;9.800;2024-03-08T11:15:12;21.93;;;19.97;;
12228;SDS011;6177;52.402;9.800;2024-03-08T11:17:47;23.13;;;20.87;;
12228;SDS011;6177;52.402;9.800;2024-03-08T11:20:14;22.23;;;20.23;;
12228;SDS011;6177;52.402;9.800;2024-03-08T11:22:48;22.53;;;20.33;;
12228;SDS011;6177;52.402;9.800;2024-03-08T11:25:30;23.27;;;21.17;;
12228;SDS011;6177;52.402;9.800;2024-03-08T11:28:13;22.30;;;20.33;;
12228;SDS011;6177;52.402;9.800;2024-03-08T11:31:22;22.07;;;19.87;;
12228;SDS011;6177;52.402;9.800;2024-03-08T11:33:36;23.70;;;21.47;;
12228;SDS011;6177;52.402;9.800;2024-03-08T11:36:03;23.03;;;21.00;;
12228;SDS011;6177;52.402;9.800;2024-03-08T11:38:47;23.30;;;21.13;;
12228;SDS011;6177;52.402;9.800;2024-03-08T11:41:22;22.77;;;20.77;;
12228;SDS011;6177;52.402;9.800;2024-03-08T11:43:48;23.40;;;21.10;;
12228;SDS011;6177;52.402;9.800;2024-03-08T11:46:15;23.53;;;21.03;;
12228;SDS011;6177;52.402;9.800;2024-03-08T11:48:43;23.73;;;21.57;;
12228;SDS011;6177;52.402;9.800;2024-03-08T11:51:12;24.50;;;22.10;;
12228;SDS011;6177;52.402;9.800;2024-03-08T11:53:39;24.97;;;22.67;;
12228;SDS011;6177;52.402;9.800;2024-03-08T11:56:12;23.90;;;21.80;;
12228;SDS011;6177;52.402;9.800;2024-03-08T11:58:39;24.40;;;22.10;;
12228;SDS011;6177;52.402;9.800;2024-03-08T12:01:09;23.40;;;21.27;;
12228;SDS011;6177;52.402;9.800;2024-03-08T12:03:41;24.77;;;22.47;;
12228;SDS011;6177;52.402;9.800;2024-03-08T12:06:10;23.70;;;21.23;;
12228;SDS011;6177;52.402;9.800;2024-03-08T12:08:36;22.53;;;20.50;;
12228;SDS011;6177;52.402;9.800;2024-03-08T12:11:03;24.03;;;20.63;;
12228;SDS011;6177;52.402;9.800;2024-03-08T12:13:30;22.50;;;20.40;;
12228;SDS011;6177;52.402;9.800;2024-03-08T12:16:03;22.63;;;20.43;;
12228;SDS011;6177;52.402;9.800;2024-03-08T12:18:33;23.10;;;20.90;;
12228;SDS011;6177;52.402;9.800;2024-03-08T12:21:11;21.73;;;19.73;;
12228;SDS011;6177;52.402;9.800;2024-03-08T12:23:45;23.07;;;20.80;;
12228;SDS011;6177;52.402;9.800;2024-03-08T12:26:15;23.50;;;21.37;;
12228;SDS011;6177;52.402;9.800;2024-03-08T12:28:42;21.23;;;19.33;;
12228;SDS011;6177;52.402;9.800;2024-03-08T12:31:12;20.80;;;19.00;;
12228;SDS011;6177;52.402;9.800;2024-03-08T12:33:49;22.60;;;20.40;;
12228;SDS011;6177;52.402;9.800;2024-03-08T12:36:15;21.87;;;19.77;;
12228;SDS011;6177;52.402;9.800;2024-03-08T12:38:46;22.47;;;20.37;;
12228;SDS011;6177;52.402;9.800;2024-03-08T12:41:16;21.97;;;19.97;;
12228;SDS011;6177;52.402;9.800;2024-03-08T12:43:45;21.63;;;19.73;;
12228;SDS011;6177;52.402;9.800;2024-03-08T12:46:16;22.77;;;20.77;;
12228;SDS011;6177;52.402;9.800;2024-03-08T12:48:43;21.43;;;19.53;;
12228;SDS011;6177;52.402;9.800;2024-03-08T12:51:12;21.23;;;19.43;;
12228;SDS011;6177;52.402;9.800;2024-03-08T12:53:44;21.50;;;19.57;;
12228;SDS011;6177;52.402;9.800;2024-03-08T12:56:34;21.70;;;19.57;;
12228;SDS011;6177;52.402;9.800;2024-03-08T12:58:59;21.90;;;19.90;;
12228;SDS011;6177;52.402;9.800;2024-03-08T13:01:25;19.93;;;18.23;;
12228;SDS011;6177;52.402;9.800;2024-03-08T13:03:57;20.53;;;18.73;;
12228;SDS011;6177;52.402;9.800;2024-03-08T13:06:25;20.37;;;18.63;;
12228;SDS011;6177;52.402;9.800;2024-03-08T13:08:51;20.37;;;18.60;;
12228;SDS011;6177;52.402;9.800;2024-03-08T13:11:20;18.73;;;17.20;;
12228;SDS011;6177;52.402;9.800;2024-03-08T13:13:46;18.13;;;16.53;;
12228;SDS011;6177;52.402;9.800;2024-03-08T13:16:12;17.40;;;15.90;;
12228;SDS011;6177;52.402;9.800;2024-03-08T13:18:42;17.30;;;15.63;;
12228;SDS011;6177;52.402;9.800;2024-03-08T13:21:08;18.47;;;16.80;;
12228;SDS011;6177;52.402;9.800;2024-03-08T13:23:39;18.67;;;17.17;;
12228;SDS011;6177;52.402;9.800;2024-03-08T13:26:06;18.65;;;17.15;;
12228;SDS011;6177;52.402;9.800;2024-03-08T13:28:32;16.88;;;15.57;;
12228;SDS011;6177;52.402;9.800;2024-03-08T13:31:02;18.00;;;16.40;;
12228;SDS011;6177;52.402;9.800;2024-03-08T13:33:32;17.55;;;16.15;;
12228;SDS011;6177;52.402;9.800;2024-03-08T13:36:01;17.30;;;15.80;;
12228;SDS011;6177;52.402;9.800;2024-03-08T13:38:28;17.42;;;15.93;;
12228;SDS011;6177;52.402;9.800;2024-03-08T13:40:54;18.50;;;16.70;;
12228;SDS011;6177;52.402;9.800;2024-03-08T13:43:20;17.77;;;16.35;;
12228;SDS011;6177;52.402;9.800;2024-03-08T13:45:45;17.10;;;15.63;;
12228;SDS011;6177;52.402;9.800;2024-03-08T13:48:11;18.13;;;16.48;;
12228;SDS011;6177;52.402;9.800;2024-03-08T13:50:38;17.92;;;16.63;;
12228;SDS011;6177;52.402;9.800;2024-03-08T13:53:05;16.85;;;15.65;;
12228;SDS011;6177;52.402;9.800;2024-03-08T13:55:30;17.83;;;16.45;;
12228;SDS011;6177;52.402;9.800;2024-03-08T13:57:56;18.30;;;16.98;;
12228;SDS011;6177;52.402;9.800;2024-03-08T14:00:24;17.50;;;16.02;;
12228;SDS011;6177;52.402;9.800;2024-03-08T14:02:52;16.58;;;15.38;;
12228;SDS011;6177;52.402;9.800;2024-03-08T14:05:19;17.08;;;15.75;;
12228;SDS011;6177;52.402;9.800;2024-03-08T14:07:45;18.08;;;16.67;;
12228;SDS011;6177;52.402;9.800;2024-03-08T14:10:14;17.67;;;16.25;;
12228;SDS011;6177;52.402;9.800;2024-03-08T14:12:40;16.40;;;15.18;;
12228;SDS011;6177;52.402;9.800;2024-03-08T14:15:08;17.27;;;15.77;;
12228;SDS011;6177;52.402;9.800;2024-03-08T14:17:33;17.63;;;16.13;;
12228;SDS011;6177;52.402;9.800;2024-03-08T14:19:59;16.33;;;15.05;;
12228;SDS011;6177;52.402;9.800;2024-03-08T14:22:24;15.63;;;14.43;;
12228;SDS011;6177;52.402;9.800;2024-03-08T14:24:51;15.90;;;14.60;;
12228;SDS011;6177;52.402;9.800;2024-03-08T14:27:17;15.73;;;14.50;;
12228;SDS011;6177;52.402;9.800;2024-03-08T14:29:43;15.27;;;14.07;;
12228;SDS011;6177;52.402;9.800;2024-03-08T14:32:09;15.65;;;14.45;;
12228;SDS011;6177;52.402;9.800;2024-03-08T14:34:35;15.13;;;13.93;;
12228;SDS011;6177;52.402;9.800;2024-03-08T14:37:01;15.90;;;14.60;;
12228;SDS011;6177;52.402;9.800;2024-03-08T14:39:31;15.15;;;13.98;;
12228;SDS011;6177;52.402;9.800;2024-03-08T14:41:58;14.40;;;13.15;;
12228;SDS011;6177;52.402;9.800;2024-03-08T14:44:25;16.13;;;14.77;;